Time;durP1;ratioP1;P1;durP2;ratioP2;P2;SDS_P1;SDS_P2;PMS_P1;PMS_P2;Temp;Humidity;BMP_temperature;BMP_pressure;BME280_temperature;BME280_humidity;BME280_pressure;Samples;Min_cycle;Max_cycle;Signal;HPM_P1;HPM_P2
2023/02/02 00:01:24;;;;;;;9.07;2.60;;;9.00;99.90;;;;;;4975259;28;20054;-80
2023/02/02 00:03:50;;;;;;;7.85;2.40;;;9.00;99.90;;;;;;4959605;28;20047;-80
2023/02/02 00:06:19;;;;;;;9.40;2.10;;;9.00;99.90;;;;;;4958865;28;20059;-80
2023/02/02 00:08:46;;;;;;;4.55;1.50;;;9.00;99.90;;;;;;4959185;28;20161;-81
2023/02/02 00:11:13;;;;;;;6.95;2.00;;;9.00;99.90;;;;;;4957317;28;20138;-80
2023/02/02 00:13:40;;;;;;;7.07;1.98;;;9.00;99.90;;;;;;4954572;28;20082;-80
2023/02/02 00:16:25;;;;;;;6.45;1.90;;;9.00;99.90;;;;;;4958276;28;20134;-80
2023/02/02 00:18:59;;;;;;;4.72;1.38;;;9.00;99.90;;;;;;4944957;28;20051;-80
2023/02/02 00:21:26;;;;;;;8.30;1.88;;;9.00;99.90;;;;;;4956341;28;20349;-80
2023/02/02 00:23:53;;;;;;;11.18;2.20;;;9.00;99.90;;;;;;4958606;28;20486;-80
2023/02/02 00:26:20;;;;;;;4.20;1.70;;;9.00;99.90;;;;;;4943074;29;20153;-80
2023/02/02 00:28:49;;;;;;;6.40;2.10;;;9.00;99.90;;;;;;4957690;28;20058;-80
2023/02/02 00:31:16;;;;;;;6.25;1.65;;;9.00;99.90;;;;;;4973734;28;20093;-80
2023/02/02 00:33:47;;;;;;;7.63;1.52;;;9.00;99.90;;;;;;4926736;28;20081;-80
2023/02/02 00:36:14;;;;;;;5.63;1.48;;;9.00;99.90;;;;;;4942425;29;20055;-80
2023/02/02 00:38:41;;;;;;;4.80;1.45;;;9.00;99.90;;;;;;4973662;28;20074;-80
2023/02/02 00:41:08;;;;;;;6.68;2.30;;;9.00;99.90;;;;;;4941032;29;20423;-80
2023/02/02 00:43:35;;;;;;;3.70;1.60;;;9.00;99.90;;;;;;4939510;29;20194;-80
2023/02/02 00:46:02;;;;;;;7.10;1.50;;;9.00;99.90;;;;;;4958502;28;20375;-80
2023/02/02 00:48:29;;;;;;;3.30;1.38;;;9.00;99.90;;;;;;4973848;28;20082;-80
2023/02/02 00:50:56;;;;;;;3.60;1.13;;;9.00;99.90;;;;;;4941609;29;20134;-80
2023/02/02 00:53:23;;;;;;;4.88;1.85;;;9.00;99.90;;;;;;4941319;28;20138;-79
2023/02/02 00:55:50;;;;;;;5.45;1.92;;;9.00;99.90;;;;;;4958372;28;20044;-80
2023/02/02 00:58:18;;;;;;;4.35;1.60;;;9.00;99.90;;;;;;4956194;28;20051;-80
2023/02/02 01:00:44;;;;;;;4.90;1.70;;;9.00;99.90;;;;;;4957092;28;20282;-80
2023/02/02 01:03:12;;;;;;;4.63;1.65;;;9.00;99.90;;;;;;4957758;28;20066;-80
2023/02/02 01:05:39;;;;;;;7.47;1.75;;;9.00;99.90;;;;;;4942312;29;20102;-80
2023/02/02 01:08:06;;;;;;;4.85;1.80;;;9.00;99.90;;;;;;4939163;29;20099;-81
2023/02/02 01:10:33;;;;;;;5.35;1.48;;;9.10;99.90;;;;;;4973855;28;20543;-80
2023/02/02 01:13:02;;;;;;;8.68;2.03;;;9.00;99.90;;;;;;4939502;29;20061;-80
2023/02/02 01:15:30;;;;;;;5.72;2.35;;;9.10;99.90;;;;;;4925330;29;20110;-80
2023/02/02 01:17:57;;;;;;;4.95;1.70;;;9.10;99.90;;;;;;4941500;29;20051;-80
2023/02/02 01:20:24;;;;;;;3.67;1.20;;;9.10;99.90;;;;;;4962641;28;20057;-80
2023/02/02 01:22:51;;;;;;;5.13;1.70;;;9.10;99.90;;;;;;4973615;28;20102;-80
2023/02/02 01:25:19;;;;;;;6.05;1.63;;;9.10;99.90;;;;;;4941616;28;20392;-80
2023/02/02 01:27:46;;;;;;;3.63;1.63;;;9.10;99.90;;;;;;4957196;28;20134;-80
2023/02/02 01:30:13;;;;;;;6.63;1.98;;;9.10;99.90;;;;;;4972985;28;20435;-80
2023/02/02 01:32:40;;;;;;;9.60;2.80;;;9.10;99.90;;;;;;4941812;29;20368;-80
2023/02/02 01:35:09;;;;;;;4.85;1.98;;;9.10;99.90;;;;;;4955957;28;20565;-81
2023/02/02 01:37:35;;;;;;;4.50;1.50;;;9.10;99.90;;;;;;4957233;28;20376;-80
2023/02/02 01:40:04;;;;;;;3.47;1.42;;;9.10;99.90;;;;;;4909350;29;20051;-80
2023/02/02 01:42:31;;;;;;;7.28;1.67;;;9.10;99.90;;;;;;4965512;28;20055;-80
2023/02/02 01:45:22;;;;;;;2.47;1.23;;;9.10;99.90;;;;;;4955736;28;20115;-80
2023/02/02 01:47:52;;;;;;;6.25;2.20;;;9.10;99.90;;;;;;4942956;28;20471;-80
2023/02/02 01:50:22;;;;;;;4.57;1.45;;;9.00;99.90;;;;;;4931347;29;20069;-79
2023/02/02 01:52:49;;;;;;;3.72;1.10;;;9.00;99.90;;;;;;4959999;28;20565;-80
2023/02/02 01:55:17;;;;;;;3.45;1.17;;;8.90;99.90;;;;;;4975311;28;20503;-81
2023/02/02 01:57:48;;;;;;;2.50;1.20;;;8.80;99.90;;;;;;4959892;28;20043;-80
2023/02/02 02:00:16;;;;;;;4.43;1.55;;;8.70;99.90;;;;;;4944081;29;20059;-79
2023/02/02 02:02:44;;;;;;;4.32;1.00;;;8.70;99.90;;;;;;4944873;29;20458;-80
2023/02/02 02:05:11;;;;;;;3.50;1.30;;;8.70;99.90;;;;;;4959966;28;20055;-80
2023/02/02 02:07:39;;;;;;;6.50;1.83;;;8.60;99.90;;;;;;4944666;28;20047;-80
2023/02/02 02:10:06;;;;;;;3.38;1.50;;;8.60;99.90;;;;;;4959511;28;20056;-80
2023/02/02 02:12:34;;;;;;;4.90;1.45;;;8.60;99.90;;;;;;4959282;28;20086;-80
2023/02/02 02:18:11;;;;;;;5.10;1.30;;;8.60;99.90;;;;;;4958260;28;20051;-80
2023/02/02 02:26:54;;;;;;;5.28;1.60;;;8.50;99.90;;;;;;4945410;29;20239;-80
2023/02/02 02:29:40;;;;;;;5.28;1.65;;;8.40;99.90;;;;;;4944631;29;20146;-80
2023/02/02 02:32:26;;;;;;;5.15;1.48;;;8.40;99.90;;;;;;4950892;28;20449;-80
2023/02/02 02:35:04;;;;;;;4.85;1.77;;;8.40;99.90;;;;;;4928547;28;20051;-80
2023/02/02 02:37:52;;;;;;;4.15;1.60;;;8.40;99.90;;;;;;4978728;28;20735;-79
2023/02/02 02:40:28;;;;;;;4.80;1.15;;;8.40;99.90;;;;;;4927447;29;20055;-79
2023/02/02 02:43:00;;;;;;;3.72;1.42;;;8.40;99.90;;;;;;4956507;28;20082;-79
2023/02/02 02:45:27;;;;;;;9.23;1.75;;;8.50;99.90;;;;;;4976637;28;20478;-79
2023/02/02 02:47:54;;;;;;;6.68;1.65;;;8.50;99.90;;;;;;4961950;28;20063;-80
2023/02/02 02:50:21;;;;;;;4.70;1.50;;;8.50;99.90;;;;;;4976965;28;20055;-79
2023/02/02 02:52:50;;;;;;;3.38;1.48;;;8.50;99.90;;;;;;4961999;28;20054;-79
2023/02/02 02:55:17;;;;;;;3.88;1.98;;;8.50;99.90;;;;;;4945424;29;20063;-82
2023/02/02 02:58:05;;;;;;;4.75;1.65;;;8.60;99.90;;;;;;4961964;28;20043;-79
2023/02/02 03:01:20;;;;;;;4.00;1.02;;;8.60;99.90;;;;;;4972811;28;20587;-80
2023/02/02 03:04:00;;;;;;;3.80;1.17;;;8.60;99.90;;;;;;4930317;29;20047;-79
2023/02/02 03:06:42;;;;;;;6.13;1.98;;;8.60;99.90;;;;;;4931991;29;20059;-82
2023/02/02 03:09:11;;;;;;;5.63;1.70;;;8.60;99.90;;;;;;4941953;28;20058;-81
2023/02/02 03:11:38;;;;;;;4.43;1.65;;;8.50;99.90;;;;;;4960607;28;20055;-81
2023/02/02 03:14:08;;;;;;;6.43;1.55;;;8.50;99.90;;;;;;4974918;28;20138;-79
2023/02/02 03:16:36;;;;;;;6.00;1.90;;;8.50;99.90;;;;;;4959746;28;20055;-79
2023/02/02 03:19:04;;;;;;;5.90;1.70;;;8.50;99.90;;;;;;4961802;28;20074;-79
2023/02/02 03:21:31;;;;;;;5.03;1.83;;;8.50;99.90;;;;;;4962437;28;20136;-80
2023/02/02 03:23:58;;;;;;;2.88;1.27;;;8.40;99.90;;;;;;4961234;28;20061;-80
2023/02/02 03:26:25;;;;;;;7.07;1.40;;;8.40;99.90;;;;;;4960698;28;20057;-80
2023/02/02 03:28:52;;;;;;;5.35;1.48;;;8.40;99.90;;;;;;4960092;28;20061;-79
2023/02/02 03:31:19;;;;;;;5.45;1.60;;;8.30;99.90;;;;;;4946581;29;20058;-79
2023/02/02 03:33:46;;;;;;;6.78;1.77;;;8.30;99.90;;;;;;4960659;28;20054;-79
2023/02/02 03:36:13;;;;;;;3.47;1.27;;;8.20;99.90;;;;;;4961443;28;20054;-80
2023/02/02 03:38:40;;;;;;;3.67;1.40;;;8.10;99.90;;;;;;4976711;28;20117;-80
2023/02/02 03:41:06;;;;;;;2.55;0.95;;;8.10;99.90;;;;;;4945859;29;20043;-80
2023/02/02 03:43:33;;;;;;;4.35;1.00;;;8.00;99.90;;;;;;4958688;28;20063;-80
2023/02/02 03:46:03;;;;;;;3.95;1.00;;;8.00;99.90;;;;;;4959169;28;20077;-80
2023/02/02 03:48:30;;;;;;;2.67;1.05;;;7.90;99.90;;;;;;4960270;28;20047;-80
2023/02/02 03:50:56;;;;;;;3.38;1.02;;;7.80;99.90;;;;;;4945190;29;20054;-80
2023/02/02 03:53:23;;;;;;;3.85;1.08;;;7.80;99.90;;;;;;4960517;28;20078;-80
2023/02/02 03:55:50;;;;;;;2.55;1.05;;;7.70;99.90;;;;;;4945644;28;20051;-80
2023/02/02 03:58:17;;;;;;;2.70;0.80;;;7.70;99.90;;;;;;4944168;28;20058;-80
2023/02/02 04:00:43;;;;;;;4.25;1.30;;;7.60;99.90;;;;;;4943712;28;20055;-81
2023/02/02 04:03:10;;;;;;;4.00;1.10;;;7.60;99.90;;;;;;4944738;29;20078;-79
2023/02/02 04:05:37;;;;;;;6.55;1.30;;;7.50;99.90;;;;;;4960546;28;20059;-78
2023/02/02 04:08:04;;;;;;;3.28;1.30;;;7.50;99.90;;;;;;4926209;29;20119;-79
2023/02/02 04:10:31;;;;;;;4.60;1.30;;;7.50;99.90;;;;;;4941816;29;20044;-81
2023/02/02 04:12:58;;;;;;;2.75;1.13;;;7.40;99.90;;;;;;4973555;28;20051;-79
2023/02/02 04:15:25;;;;;;;5.18;1.17;;;7.40;99.90;;;;;;4976194;28;20055;-79
2023/02/02 04:17:52;;;;;;;3.33;1.15;;;7.40;99.90;;;;;;4946511;28;20055;-79
2023/02/02 04:20:19;;;;;;;3.30;1.25;;;7.40;99.90;;;;;;4976174;28;20070;-79
2023/02/02 04:22:46;;;;;;;12.90;1.58;;;7.40;99.90;;;;;;4945042;29;20130;-80
2023/02/02 04:25:12;;;;;;;6.93;2.90;;;7.40;99.90;;;;;;4961026;28;20081;-80
2023/02/02 04:27:39;;;;;;;3.58;1.13;;;7.30;99.90;;;;;;4943552;28;20106;-79
2023/02/02 04:30:07;;;;;;;5.88;1.15;;;7.30;99.90;;;;;;4927900;28;20047;-80
2023/02/02 04:32:34;;;;;;;3.55;0.80;;;7.30;99.90;;;;;;4942814;29;20055;-80
2023/02/02 04:35:01;;;;;;;2.30;1.08;;;7.30;99.90;;;;;;4943869;29;20058;-80
2023/02/02 04:37:30;;;;;;;3.50;1.10;;;7.30;99.90;;;;;;4960115;28;20069;-80
2023/02/02 04:39:56;;;;;;;3.47;1.05;;;7.30;99.90;;;;;;4960497;28;20051;-80
2023/02/02 04:42:23;;;;;;;4.10;1.20;;;7.30;99.90;;;;;;4960259;28;20047;-80
2023/02/02 04:44:50;;;;;;;4.13;1.30;;;7.30;99.90;;;;;;4946584;29;20127;-80
2023/02/02 04:47:17;;;;;;;3.33;1.17;;;7.30;99.90;;;;;;4980000;28;20062;-80
2023/02/02 04:49:44;;;;;;;3.78;1.20;;;7.30;99.90;;;;;;4962999;28;20051;-79
2023/02/02 04:52:11;;;;;;;5.70;2.40;;;7.30;99.90;;;;;;4930913;29;20134;-80
2023/02/02 04:54:38;;;;;;;2.30;0.77;;;7.30;99.90;;;;;;4962744;28;20142;-79
2023/02/02 04:57:05;;;;;;;4.38;1.30;;;7.30;99.90;;;;;;4973158;28;20334;-80
2023/02/02 04:59:31;;;;;;;5.65;1.40;;;7.20;99.90;;;;;;4978292;28;20065;-80
2023/02/02 05:01:59;;;;;;;3.83;1.27;;;7.20;99.90;;;;;;4963159;28;20047;-80
2023/02/02 05:04:26;;;;;;;2.05;1.10;;;7.20;99.90;;;;;;4962996;28;20138;-80
2023/02/02 05:06:53;;;;;;;2.88;1.00;;;7.20;99.90;;;;;;4963791;28;20126;-80
2023/02/02 05:09:20;;;;;;;3.47;0.88;;;7.10;99.90;;;;;;4947656;29;20106;-80
2023/02/02 05:11:47;;;;;;;4.80;1.15;;;7.10;99.90;;;;;;4962030;28;20051;-80
2023/02/02 05:14:17;;;;;;;3.20;1.17;;;7.10;99.90;;;;;;4946239;29;20059;-80
2023/02/02 05:16:44;;;;;;;2.47;0.90;;;7.00;99.90;;;;;;4978557;28;20074;-80
2023/02/02 05:19:11;;;;;;;3.78;1.05;;;7.00;99.90;;;;;;4947167;29;20079;-80
2023/02/02 05:21:38;;;;;;;4.60;1.17;;;7.00;99.90;;;;;;4963477;28;20055;-79
2023/02/02 05:24:05;;;;;;;6.03;2.10;;;7.00;99.90;;;;;;4959588;28;20146;-80
2023/02/02 05:26:33;;;;;;;4.90;1.42;;;7.00;99.90;;;;;;4944117;28;20945;-80
2023/02/02 05:29:01;;;;;;;4.78;1.13;;;6.90;99.90;;;;;;4960935;28;20207;-79
2023/02/02 05:31:30;;;;;;;2.53;1.13;;;6.90;99.90;;;;;;4961209;28;20459;-79
2023/02/02 05:33:57;;;;;;;5.47;1.40;;;6.90;99.90;;;;;;4960336;28;20066;-79
2023/02/02 05:36:23;;;;;;;3.55;1.00;;;6.90;99.90;;;;;;4962558;28;20435;-80
2023/02/02 05:38:50;;;;;;;3.05;1.15;;;7.00;99.90;;;;;;4958415;28;20093;-80
2023/02/02 05:41:17;;;;;;;1.95;0.95;;;6.90;99.90;;;;;;4950295;28;20059;-80
2023/02/02 05:43:44;;;;;;;4.75;1.00;;;6.90;99.90;;;;;;4961673;28;20459;-80
2023/02/02 05:46:11;;;;;;;4.32;1.20;;;6.90;99.90;;;;;;4963574;28;20507;-80
2023/02/02 05:48:37;;;;;;;2.53;0.80;;;6.90;99.90;;;;;;4975311;28;20047;-80
2023/02/02 05:51:15;;;;;;;2.85;1.13;;;6.90;99.90;;;;;;4953883;28;20082;-81
2023/02/02 05:53:43;;;;;;;4.55;1.10;;;6.90;99.90;;;;;;4958460;28;20143;-81
2023/02/02 05:56:11;;;;;;;3.80;1.08;;;6.90;99.90;;;;;;4957858;28;20102;-80
2023/02/02 05:58:38;;;;;;;2.70;1.00;;;6.90;99.90;;;;;;4947737;28;20138;-81
2023/02/02 06:01:05;;;;;;;5.88;1.52;;;6.90;99.90;;;;;;4944182;29;20043;-80
2023/02/02 06:03:32;;;;;;;7.32;1.40;;;6.90;99.90;;;;;;4970100;28;20473;-80
2023/02/02 06:05:59;;;;;;;4.00;1.10;;;7.00;99.90;;;;;;4939473;28;20055;-80
2023/02/02 06:08:25;;;;;;;5.95;1.88;;;7.00;99.90;;;;;;4967270;28;20623;-80
2023/02/02 06:10:52;;;;;;;3.97;1.42;;;7.00;99.90;;;;;;4934161;28;20039;-81
2023/02/02 06:13:20;;;;;;;5.05;1.58;;;7.00;99.90;;;;;;4941132;28;20049;-80
2023/02/02 06:15:47;;;;;;;2.33;1.10;;;7.00;99.90;;;;;;4934008;28;20437;-81
2023/02/02 06:18:13;;;;;;;3.25;1.20;;;7.00;99.90;;;;;;4952464;28;20391;-80
2023/02/02 06:20:40;;;;;;;3.67;1.25;;;7.00;99.90;;;;;;4921148;29;20406;-79
2023/02/02 06:23:08;;;;;;;2.70;1.13;;;7.00;99.90;;;;;;4936267;29;20525;-79
2023/02/02 06:25:36;;;;;;;2.17;1.20;;;7.00;99.90;;;;;;4938111;29;20065;-79
2023/02/02 06:28:03;;;;;;;7.15;1.77;;;7.00;99.90;;;;;;4950557;28;20452;-79
2023/02/02 06:30:30;;;;;;;2.15;0.85;;;7.00;99.90;;;;;;4967666;28;20499;-80
2023/02/02 06:32:58;;;;;;;4.32;1.23;;;7.00;99.90;;;;;;4948037;28;20051;-80
2023/02/02 06:35:26;;;;;;;4.05;1.50;;;7.00;99.90;;;;;;4937181;28;20065;-80
2023/02/02 06:37:53;;;;;;;7.53;1.60;;;7.00;99.90;;;;;;4966084;28;20051;-80
2023/02/02 06:40:20;;;;;;;3.20;1.25;;;7.00;99.90;;;;;;4950034;28;20114;-80
2023/02/02 06:42:47;;;;;;;5.65;1.30;;;7.00;99.90;;;;;;4964415;28;20194;-80
2023/02/02 06:45:14;;;;;;;4.28;0.93;;;7.00;99.90;;;;;;4932265;28;20153;-80
2023/02/02 06:47:41;;;;;;;3.53;1.17;;;7.00;99.90;;;;;;4955608;28;20154;-80
2023/02/02 06:50:09;;;;;;;1.90;0.88;;;7.00;99.90;;;;;;4950926;28;20471;-80
2023/02/02 06:52:36;;;;;;;2.92;0.80;;;7.00;99.90;;;;;;4951542;28;20043;-80
2023/02/02 06:55:03;;;;;;;2.65;1.10;;;7.00;99.90;;;;;;4966216;28;20065;-80
2023/02/02 06:57:30;;;;;;;1.40;0.70;;;7.00;99.90;;;;;;4950967;28;20147;-80
2023/02/02 06:59:57;;;;;;;1.20;0.70;;;7.00;99.90;;;;;;4950356;28;20180;-80
2023/02/02 07:02:24;;;;;;;1.38;0.63;;;7.00;99.90;;;;;;4966879;28;20155;-80
2023/02/02 07:04:51;;;;;;;0.63;0.50;;;7.00;99.90;;;;;;4951393;28;20099;-80
2023/02/02 07:07:18;;;;;;;2.35;0.80;;;7.00;99.90;;;;;;4937061;29;20336;-80
2023/02/02 07:09:44;;;;;;;1.00;0.60;;;7.00;99.90;;;;;;4950211;28;20062;-80
2023/02/02 07:12:11;;;;;;;1.80;0.75;;;7.00;99.90;;;;;;4934637;29;20206;-80
2023/02/02 07:14:39;;;;;;;2.53;0.95;;;7.00;99.90;;;;;;4947628;28;20058;-78
2023/02/02 07:17:06;;;;;;;2.60;0.70;;;7.00;99.90;;;;;;4966280;28;20043;-78
2023/02/02 07:19:33;;;;;;;1.50;0.65;;;7.00;99.90;;;;;;4956151;28;20058;-76
2023/02/02 07:22:00;;;;;;;1.88;0.85;;;6.90;99.90;;;;;;4940892;28;20121;-76
2023/02/02 07:24:27;;;;;;;1.70;0.60;;;6.90;99.90;;;;;;4943221;29;20375;-76
2023/02/02 07:26:54;;;;;;;1.80;0.73;;;6.90;99.90;;;;;;4958941;28;20051;-76
2023/02/02 07:29:21;;;;;;;3.25;0.95;;;6.90;99.90;;;;;;4974381;28;20099;-76
2023/02/02 07:31:48;;;;;;;1.42;0.80;;;6.90;99.90;;;;;;4958026;28;20145;-76
2023/02/02 07:34:15;;;;;;;2.75;0.80;;;6.90;99.90;;;;;;4974549;28;20137;-76
2023/02/02 07:36:42;;;;;;;1.23;0.60;;;6.90;99.90;;;;;;4943579;28;20055;-76
2023/02/02 07:39:10;;;;;;;1.45;0.90;;;6.90;99.90;;;;;;4945621;29;20510;-76
2023/02/02 07:41:38;;;;;;;1.98;0.75;;;6.90;99.90;;;;;;4949710;28;20055;-76
2023/02/02 07:44:06;;;;;;;3.47;1.05;;;6.90;99.90;;;;;;4976009;28;20483;-76
2023/02/02 07:46:33;;;;;;;2.22;1.00;;;7.00;99.90;;;;;;4961805;28;20158;-76
2023/02/02 07:49:01;;;;;;;3.95;1.50;;;7.10;99.90;;;;;;4948014;28;20413;-76
2023/02/02 07:51:28;;;;;;;5.35;1.02;;;7.10;99.90;;;;;;4962464;28;20138;-76
2023/02/02 07:53:57;;;;;;;3.50;1.15;;;7.20;99.90;;;;;;4977313;28;20244;-76
2023/02/02 07:56:27;;;;;;;4.82;1.67;;;7.30;99.90;;;;;;4962036;28;20534;-76
2023/02/02 07:58:54;;;;;;;4.50;1.20;;;7.30;99.90;;;;;;4961038;28;20054;-77
2023/02/02 08:01:22;;;;;;;2.40;1.27;;;7.30;99.90;;;;;;4977283;28;20530;-77
2023/02/02 08:03:49;;;;;;;5.47;1.33;;;7.30;99.90;;;;;;4957961;28;20479;-77
2023/02/02 08:06:30;;;;;;;3.03;0.80;;;7.30;99.90;;;;;;4954641;28;20138;-77
2023/02/02 08:08:58;;;;;;;4.22;1.20;;;7.30;99.90;;;;;;4945373;28;20562;-76
2023/02/02 08:11:25;;;;;;;3.75;1.35;;;7.30;99.90;;;;;;4977982;28;20503;-76
2023/02/02 08:13:57;;;;;;;4.80;1.98;;;7.40;99.90;;;;;;4960460;28;20514;-76
2023/02/02 08:16:25;;;;;;;2.55;1.00;;;7.40;99.90;;;;;;4940524;28;20137;-77
2023/02/02 08:18:52;;;;;;;3.13;1.10;;;7.50;99.90;;;;;;4977511;28;20099;-77
2023/02/02 08:21:19;;;;;;;5.03;1.83;;;7.50;99.90;;;;;;4978158;28;20051;-77
2023/02/02 08:23:46;;;;;;;4.63;1.00;;;7.60;99.90;;;;;;4961713;28;20086;-76
2023/02/02 08:26:15;;;;;;;3.40;1.15;;;7.70;99.90;;;;;;4945743;29;20055;-76
2023/02/02 08:28:43;;;;;;;2.90;1.20;;;7.80;99.90;;;;;;4958029;28;20564;-76
2023/02/02 08:31:11;;;;;;;4.05;1.10;;;7.80;99.90;;;;;;4958695;28;20043;-76
2023/02/02 08:33:38;;;;;;;4.05;1.30;;;7.90;99.90;;;;;;4973616;28;20091;-76
2023/02/02 08:36:11;;;;;;;3.90;1.00;;;7.90;99.90;;;;;;4942744;29;20058;-76
2023/02/02 08:38:39;;;;;;;3.30;1.48;;;8.00;99.90;;;;;;4957247;28;20494;-76
2023/02/02 08:41:06;;;;;;;2.20;1.15;;;8.00;99.90;;;;;;4974514;28;20062;-75
2023/02/02 08:43:34;;;;;;;3.33;1.02;;;8.10;99.90;;;;;;4940976;28;20142;-76
2023/02/02 08:46:01;;;;;;;4.22;1.10;;;8.20;99.90;;;;;;4942754;28;20061;-76
2023/02/02 08:48:31;;;;;;;1.77;1.00;;;8.20;99.90;;;;;;4942173;28;20051;-76
2023/02/02 08:50:58;;;;;;;4.25;1.33;;;8.30;99.90;;;;;;4974603;28;20121;-78
2023/02/02 08:53:25;;;;;;;3.28;1.25;;;8.30;99.90;;;;;;4941771;28;20051;-76
2023/02/02 08:56:19;;;;;;;4.93;1.38;;;8.40;99.90;;;;;;4958370;28;20406;-76
2023/02/02 08:58:49;;;;;;;5.82;1.73;;;8.40;99.90;;;;;;4923659;29;20059;-75
2023/02/02 09:01:23;;;;;;;5.38;1.40;;;8.50;99.90;;;;;;4957857;28;20062;-75
2023/02/02 09:03:58;;;;;;;2.25;1.40;;;8.50;99.90;;;;;;4941065;29;20055;-78
2023/02/02 09:06:28;;;;;;;5.68;1.27;;;8.70;99.90;;;;;;4957981;28;20205;-76
2023/02/02 09:08:54;;;;;;;4.68;1.48;;;8.80;99.90;;;;;;4957580;28;20125;-76
2023/02/02 09:11:22;;;;;;;4.72;1.40;;;8.80;99.90;;;;;;4974069;28;20368;-75
2023/02/02 09:13:51;;;;;;;4.75;1.75;;;8.90;99.90;;;;;;4956298;28;20515;-78
2023/02/02 09:16:18;;;;;;;5.88;1.42;;;8.90;99.90;;;;;;4957596;28;20196;-77
2023/02/02 09:18:46;;;;;;;5.43;1.98;;;8.90;99.90;;;;;;4954993;28;20054;-76
2023/02/02 09:21:14;;;;;;;3.13;1.20;;;8.90;99.90;;;;;;4954433;28;20490;-76
2023/02/02 09:23:42;;;;;;;4.72;1.20;;;8.80;99.90;;;;;;4953414;28;20083;-76
2023/02/02 09:26:12;;;;;;;3.35;1.40;;;8.90;99.90;;;;;;4951404;28;20879;-77
2023/02/02 09:28:40;;;;;;;5.47;1.42;;;8.90;99.90;;;;;;4961711;28;20129;-76
2023/02/02 09:31:07;;;;;;;4.72;1.60;;;8.90;99.90;;;;;;4953020;28;20669;-76
2023/02/02 09:33:34;;;;;;;4.25;1.20;;;8.90;99.90;;;;;;4936211;29;20055;-77
2023/02/02 09:36:41;;;;;;;3.92;1.00;;;8.90;99.90;;;;;;4953667;28;20142;-76
2023/02/02 09:39:11;;;;;;;5.15;1.65;;;8.90;99.90;;;;;;4962398;28;20110;-78
2023/02/02 09:41:39;;;;;;;4.47;1.15;;;9.00;99.90;;;;;;4952003;28;20051;-78
2023/02/02 09:44:15;;;;;;;3.45;1.45;;;9.00;99.90;;;;;;4937206;28;20055;-78
2023/02/02 09:46:46;;;;;;;4.97;1.10;;;9.10;99.90;;;;;;4972737;28;20071;-79
2023/02/02 09:49:23;;;;;;;1.75;1.10;;;9.10;99.90;;;;;;4955816;28;20471;-74
2023/02/02 09:51:56;;;;;;;3.75;1.23;;;9.10;99.90;;;;;;4937042;29;20123;-74
2023/02/02 09:54:33;;;;;;;5.38;1.98;;;9.20;99.90;;;;;;4955715;28;20190;-74
2023/02/02 09:57:01;;;;;;;4.15;1.30;;;9.20;99.90;;;;;;4940490;29;20129;-74
2023/02/02 09:59:36;;;;;;;4.07;1.45;;;9.20;99.90;;;;;;4955303;28;20058;-74
2023/02/02 10:02:24;;;;;;;3.42;1.50;;;9.30;99.90;;;;;;4957113;28;20051;-74
2023/02/02 10:04:59;;;;;;;4.40;1.70;;;9.30;99.90;;;;;;4960525;28;20051;-74
2023/02/02 10:07:31;;;;;;;3.65;1.40;;;9.30;99.90;;;;;;4956497;28;20051;-74
2023/02/02 10:10:25;;;;;;;4.68;1.52;;;9.40;99.90;;;;;;4956293;28;20083;-74
2023/02/02 10:12:55;;;;;;;2.72;1.17;;;9.40;99.90;;;;;;4940073;28;20487;-74
2023/02/02 10:15:37;;;;;;;3.13;1.23;;;9.50;99.90;;;;;;4957155;28;20061;-74
2023/02/02 10:18:30;;;;;;;3.45;1.48;;;9.60;99.90;;;;;;4955266;28;20593;-74
2023/02/02 10:20:59;;;;;;;3.70;1.60;;;9.60;99.90;;;;;;4953943;28;20161;-74
2023/02/02 10:23:32;;;;;;;2.53;1.30;;;9.60;99.90;;;;;;4956448;28;20051;-74
2023/02/02 10:25:58;;;;;;;3.63;1.52;;;9.70;99.90;;;;;;4956257;28;20444;-74
2023/02/02 10:29:01;;;;;;;2.92;1.27;;;9.70;99.90;;;;;;4938996;29;20087;-74
2023/02/02 10:31:44;;;;;;;3.08;1.10;;;9.80;99.90;;;;;;4950908;28;20055;-74
2023/02/02 10:34:28;;;;;;;3.25;1.38;;;10.00;99.90;;;;;;4972564;28;20441;-75
2023/02/02 10:37:01;;;;;;;5.35;1.27;;;10.10;99.90;;;;;;4972912;28;20063;-74
2023/02/02 10:39:56;;;;;;;3.83;1.50;;;10.20;99.90;;;;;;4972183;28;20051;-74
2023/02/02 10:42:32;;;;;;;2.70;1.20;;;10.20;99.90;;;;;;4941985;28;20139;-74
2023/02/02 10:45:07;;;;;;;5.60;1.40;;;10.20;99.90;;;;;;4941128;29;20446;-74
2023/02/02 10:47:34;;;;;;;2.53;1.10;;;10.30;99.90;;;;;;4972160;28;20054;-74
2023/02/02 10:50:11;;;;;;;1.73;0.90;;;10.40;99.90;;;;;;4972794;28;20079;-74
2023/02/02 10:52:39;;;;;;;3.03;1.38;;;10.50;99.90;;;;;;4970894;28;20094;-74
2023/02/02 10:55:09;;;;;;;1.65;0.98;;;10.60;99.90;;;;;;4956730;28;20059;-75
2023/02/02 10:57:52;;;;;;;4.70;1.17;;;10.80;99.90;;;;;;4974159;28;20051;-74
2023/02/02 11:00:31;;;;;;;5.25;2.28;;;10.90;99.90;;;;;;4974682;28;20063;-74
2023/02/02 11:02:59;;;;;;;2.63;1.50;;;11.00;99.90;;;;;;4945266;29;20051;-74
2023/02/02 11:08:29;;;;;;;3.67;1.75;;;10.90;99.90;;;;;;4971142;28;20083;-75
2023/02/02 11:10:56;;;;;;;2.90;1.05;;;10.90;99.90;;;;;;4976386;28;20146;-75
2023/02/02 11:13:35;;;;;;;2.88;1.50;;;10.80;99.90;;;;;;4957763;28;20134;-75
2023/02/02 11:16:14;;;;;;;2.78;1.25;;;10.80;99.90;;;;;;4959490;28;20126;-74
2023/02/02 11:18:42;;;;;;;3.97;1.67;;;11.00;99.90;;;;;;4945075;29;20091;-74
2023/02/02 11:21:30;;;;;;;2.53;1.27;;;11.00;99.90;;;;;;4975732;28;20526;-74
2023/02/02 11:24:18;;;;;;;2.38;1.02;;;11.20;99.90;;;;;;4943422;28;20063;-74
2023/02/02 11:27:00;;;;;;;1.33;0.90;;;11.30;99.90;;;;;;4975141;28;20123;-75
2023/02/02 11:29:30;;;;;;;3.75;1.30;;;11.40;99.90;;;;;;4942746;28;20205;-75
2023/02/02 11:31:57;;;;;;;2.20;1.02;;;11.50;99.90;;;;;;4975830;28;20578;-74
2023/02/02 11:34:27;;;;;;;3.15;1.20;;;11.40;99.90;;;;;;4943783;28;20308;-74
2023/02/02 11:36:57;;;;;;;1.60;0.88;;;11.30;99.90;;;;;;4959010;28;20114;-75
2023/02/02 11:39:25;;;;;;;3.47;1.65;;;11.20;99.90;;;;;;4937493;28;20407;-75
2023/02/02 11:42:06;;;;;;;2.47;1.00;;;11.20;99.90;;;;;;4948139;28;20051;-81
2023/02/02 11:44:34;;;;;;;3.85;1.33;;;11.40;99.90;;;;;;4952481;28;20581;-83
2023/02/02 11:47:03;;;;;;;2.80;1.45;;;11.30;99.90;;;;;;4956546;28;20193;-80
2023/02/02 11:49:32;;;;;;;1.77;1.10;;;11.40;99.90;;;;;;4926981;29;20082;-80
2023/02/02 11:52:04;;;;;;;2.63;1.30;;;11.60;99.90;;;;;;4953964;28;20315;-80
2023/02/02 11:54:34;;;;;;;2.28;1.30;;;11.80;99.90;;;;;;4971259;28;20051;-80
2023/02/02 11:57:03;;;;;;;1.90;0.90;;;11.80;99.90;;;;;;4956531;28;20137;-80
2023/02/02 11:59:36;;;;;;;3.92;1.50;;;11.70;99.90;;;;;;4951033;28;20495;-80
2023/02/02 12:02:48;;;;;;;2.70;1.45;;;11.60;99.90;;;;;;4973290;28;20051;-80
2023/02/02 12:05:22;;;;;;;2.13;1.25;;;11.60;99.90;;;;;;4974418;28;20214;-81
2023/02/02 12:07:49;;;;;;;2.75;1.50;;;11.60;99.90;;;;;;4941770;28;20682;-80
2023/02/02 12:10:59;;;;;;;2.90;1.17;;;11.70;99.90;;;;;;4955589;28;20599;-79
2023/02/02 12:14:03;;;;;;;3.15;1.10;;;11.80;99.90;;;;;;4938333;29;20145;-79
2023/02/02 12:16:37;;;;;;;1.85;1.10;;;11.70;99.90;;;;;;4941710;29;20054;-79
2023/02/02 12:19:27;;;;;;;2.33;1.15;;;11.70;99.90;;;;;;4939115;29;20157;-79
2023/02/02 12:22:00;;;;;;;2.63;0.90;;;11.70;99.90;;;;;;4957822;28;20159;-79
2023/02/02 12:24:35;;;;;;;1.80;1.00;;;11.70;99.90;;;;;;4953953;28;20130;-79
2023/02/02 12:27:11;;;;;;;2.25;1.05;;;11.70;99.90;;;;;;4954982;28;20047;-79
2023/02/02 12:29:45;;;;;;;2.83;1.42;;;11.50;99.90;;;;;;4938547;28;20051;-79
2023/02/02 12:32:33;;;;;;;1.38;0.88;;;11.50;99.90;;;;;;4970587;28;20043;-79
2023/02/02 12:35:20;;;;;;;3.28;1.10;;;11.40;99.90;;;;;;4944665;28;20207;-79
2023/02/02 12:37:54;;;;;;;1.60;0.73;;;11.50;99.90;;;;;;4969072;28;20423;-79
2023/02/02 12:40:46;;;;;;;2.80;1.17;;;11.60;99.90;;;;;;4949317;28;20576;-79
2023/02/02 12:43:41;;;;;;;4.68;1.80;;;11.60;99.90;;;;;;4929944;29;20138;-79
2023/02/02 12:46:17;;;;;;;2.63;1.10;;;11.60;99.90;;;;;;4937905;29;20047;-79
2023/02/02 12:48:58;;;;;;;3.38;1.40;;;11.60;99.90;;;;;;4933405;28;20302;-79
2023/02/02 12:51:51;;;;;;;3.13;1.35;;;11.70;99.90;;;;;;4964594;28;20435;-79
2023/02/02 12:54:42;;;;;;;2.78;1.35;;;11.80;99.90;;;;;;4939229;29;20055;-79
2023/02/02 12:57:41;;;;;;;2.78;1.33;;;11.90;99.90;;;;;;4961077;28;20206;-79
2023/02/02 13:00:48;;;;;;;3.13;1.40;;;11.90;99.90;;;;;;4949790;28;20183;-79
2023/02/02 13:03:37;;;;;;;2.30;1.40;;;12.00;99.90;;;;;;4954554;28;20290;-79
2023/02/02 13:06:09;;;;;;;4.00;1.70;;;12.00;99.90;;;;;;4922494;29;20051;-79
2023/02/02 13:08:57;;;;;;;3.75;1.50;;;11.90;99.90;;;;;;4938335;28;20074;-79
2023/02/02 13:11:50;;;;;;;2.78;1.33;;;11.90;99.90;;;;;;4953461;28;20509;-79
2023/02/02 13:14:20;;;;;;;;;;;11.80;99.90;;;;;;4951821;28;20047;-80
2023/02/02 13:16:50;;;;;;;3.60;1.70;;;11.90;99.90;;;;;;4936935;29;19926;-79
2023/02/02 13:19:36;;;;;;;3.85;1.25;;;11.70;99.90;;;;;;4907312;28;20050;-79
2023/02/02 13:22:05;;;;;;;2.08;1.02;;;11.70;99.90;;;;;;4949558;28;20142;-79
2023/02/02 13:24:33;;;;;;;2.38;1.10;;;11.70;99.90;;;;;;4949113;28;20058;-79
2023/02/02 13:27:02;;;;;;;2.90;1.10;;;11.70;99.90;;;;;;4921368;28;20558;-79
2023/02/02 13:29:30;;;;;;;2.25;1.20;;;11.70;99.90;;;;;;4935480;29;20134;-80